sensor_id;sensor_type;location;lat;lon;timestamp;pressure;altitude;pressure_sealevel;temperature;humidity
48156;BME280;35568;48.104;11.782;2023-05-10T00:01:49;94807.99;;;14.40;55.52
48156;BME280;35568;48.104;11.782;2023-05-10T00:04:16;94808.38;;;14.80;55.66
48156;BME280;35568;48.104;11.782;2023-05-10T00:06:43;94805.56;;;14.37;56.17
48156;BME280;35568;48.104;11.782;2023-05-10T00:09:09;94805.60;;;14.40;56.14
48156;BME280;35568;48.104;11.782;2023-05-10T00:11:36;94805.45;;;14.65;55.91
48156;BME280;35568;48.104;11.782;2023-05-10T00:14:03;94805.72;;;14.52;56.06
48156;BME280;35568;48.104;11.782;2023-05-10T00:16:30;94808.72;;;14.68;56.01
48156;BME280;35568;48.104;11.782;2023-05-10T00:18:57;94807.73;;;15.07;55.76
48156;BME280;35568;48.104;11.782;2023-05-10T00:21:23;94806.23;;;14.03;56.78
48156;BME280;35568;48.104;11.782;2023-05-10T00:23:50;94802.75;;;14.16;56.72
48156;BME280;35568;48.104;11.782;2023-05-10T00:26:17;94799.37;;;14.73;56.39
48156;BME280;35568;48.104;11.782;2023-05-10T00:28:44;94797.20;;;14.14;56.73
48156;BME280;35568;48.104;11.782;2023-05-10T00:31:10;94795.94;;;14.10;56.65
48156;BME280;35568;48.104;11.782;2023-05-10T00:33:37;94799.77;;;14.02;56.98
48156;BME280;35568;48.104;11.782;2023-05-10T00:36:05;94798.51;;;14.16;57.02
48156;BME280;35568;48.104;11.782;2023-05-10T00:38:32;94796.96;;;14.25;57.35
48156;BME280;35568;48.104;11.782;2023-05-10T00:40:58;94799.55;;;14.21;57.32
48156;BME280;35568;48.104;11.782;2023-05-10T00:43:25;94800.26;;;14.01;57.30
48156;BME280;35568;48.104;11.782;2023-05-10T00:45:52;94796.16;;;13.61;57.73
48156;BME280;35568;48.104;11.782;2023-05-10T00:48:19;94797.18;;;13.75;57.36
48156;BME280;35568;48.104;11.782;2023-05-10T00:50:47;94794.76;;;14.12;57.06
48156;BME280;35568;48.104;11.782;2023-05-10T00:53:15;94794.22;;;14.03;57.31
48156;BME280;35568;48.104;11.782;2023-05-10T00:55:43;94793.56;;;14.20;57.47
48156;BME280;35568;48.104;11.782;2023-05-10T00:58:10;94793.59;;;13.94;57.36
48156;BME280;35568;48.104;11.782;2023-05-10T01:00:38;94792.40;;;14.23;57.24
48156;BME280;35568;48.104;11.782;2023-05-10T01:03:08;94789.57;;;14.09;56.95
48156;BME280;35568;48.104;11.782;2023-05-10T01:05:36;94791.78;;;14.20;57.17
48156;BME280;35568;48.104;11.782;2023-05-10T01:08:03;94792.57;;;14.28;57.02
48156;BME280;35568;48.104;11.782;2023-05-10T01:10:30;94793.98;;;13.96;57.14
48156;BME280;35568;48.104;11.782;2023-05-10T01:12:59;94793.82;;;13.96;57.33
48156;BME280;35568;48.104;11.782;2023-05-10T01:15:27;94794.40;;;14.10;57.07
48156;BME280;35568;48.104;11.782;2023-05-10T01:17:54;94797.10;;;14.15;57.31
48156;BME280;35568;48.104;11.782;2023-05-10T01:20:23;94796.81;;;13.86;57.46
48156;BME280;35568;48.104;11.782;2023-05-10T01:23:22;94792.60;;;14.11;57.66
48156;BME280;35568;48.104;11.782;2023-05-10T01:26:10;94792.93;;;13.80;57.34
48156;BME280;35568;48.104;11.782;2023-05-10T01:29:04;94792.64;;;14.04;57.32
48156;BME280;35568;48.104;11.782;2023-05-10T01:32:21;94792.93;;;13.76;57.39
48156;BME280;35568;48.104;11.782;2023-05-10T01:34:56;94793.81;;;14.24;57.18
48156;BME280;35568;48.104;11.782;2023-05-10T01:37:33;94793.37;;;14.16;57.35
48156;BME280;35568;48.104;11.782;2023-05-10T01:40:08;94790.20;;;14.18;57.40
48156;BME280;35568;48.104;11.782;2023-05-10T01:42:40;94791.98;;;13.68;57.57
48156;BME280;35568;48.104;11.782;2023-05-10T01:45:17;94792.01;;;13.91;57.47
48156;BME280;35568;48.104;11.782;2023-05-10T01:47:48;94792.71;;;13.56;57.63
48156;BME280;35568;48.104;11.782;2023-05-10T01:50:19;94793.33;;;13.78;57.55
48156;BME280;35568;48.104;11.782;2023-05-10T01:52:51;94795.06;;;13.89;57.34
48156;BME280;35568;48.104;11.782;2023-05-10T01:55:21;94794.25;;;13.76;57.76
48156;BME280;35568;48.104;11.782;2023-05-10T01:57:55;94794.61;;;13.89;57.43
48156;BME280;35568;48.104;11.782;2023-05-10T02:00:24;94795.42;;;13.70;57.68
48156;BME280;35568;48.104;11.782;2023-05-10T02:02:52;94797.09;;;13.93;57.44
48156;BME280;35568;48.104;11.782;2023-05-10T02:05:20;94796.79;;;13.60;57.38
48156;BME280;35568;48.104;11.782;2023-05-10T02:07:49;94797.31;;;13.88;57.54
48156;BME280;35568;48.104;11.782;2023-05-10T02:10:18;94796.56;;;14.01;57.19
48156;BME280;35568;48.104;11.782;2023-05-10T02:12:48;94796.55;;;13.73;57.22
48156;BME280;35568;48.104;11.782;2023-05-10T02:15:19;94796.17;;;13.80;57.13
48156;BME280;35568;48.104;11.782;2023-05-10T02:17:47;94795.22;;;13.48;57.33
48156;BME280;35568;48.104;11.782;2023-05-10T02:20:16;94793.65;;;14.03;57.21
48156;BME280;35568;48.104;11.782;2023-05-10T02:22:45;94793.43;;;14.12;57.11
48156;BME280;35568;48.104;11.782;2023-05-10T02:25:14;94793.18;;;13.80;57.21
48156;BME280;35568;48.104;11.782;2023-05-10T02:27:42;94791.93;;;13.91;57.16
48156;BME280;35568;48.104;11.782;2023-05-10T02:30:10;94792.27;;;14.08;57.25
48156;BME280;35568;48.104;11.782;2023-05-10T02:32:38;94793.45;;;13.84;56.95
48156;BME280;35568;48.104;11.782;2023-05-10T02:35:06;94792.41;;;14.39;56.75
48156;BME280;35568;48.104;11.782;2023-05-10T02:37:34;94791.31;;;14.44;56.88
48156;BME280;35568;48.104;11.782;2023-05-10T02:40:04;94790.38;;;14.34;57.07
48156;BME280;35568;48.104;11.782;2023-05-10T02:42:36;94791.12;;;14.05;57.32
48156;BME280;35568;48.104;11.782;2023-05-10T02:45:07;94790.89;;;13.76;56.97
48156;BME280;35568;48.104;11.782;2023-05-10T02:47:35;94790.20;;;13.99;56.92
48156;BME280;35568;48.104;11.782;2023-05-10T02:50:03;94790.51;;;13.60;57.17
48156;BME280;35568;48.104;11.782;2023-05-10T02:52:38;94792.09;;;14.17;57.02
48156;BME280;35568;48.104;11.782;2023-05-10T02:55:08;94790.76;;;14.07;57.17
48156;BME280;35568;48.104;11.782;2023-05-10T02:57:40;94792.02;;;14.19;56.97
48156;BME280;35568;48.104;11.782;2023-05-10T03:03:01;94787.82;;;13.83;56.36
48156;BME280;35568;48.104;11.782;2023-05-10T03:05:27;94790.30;;;14.05;56.21
48156;BME280;35568;48.104;11.782;2023-05-10T03:07:54;94790.88;;;13.91;56.54
48156;BME280;35568;48.104;11.782;2023-05-10T03:10:27;94793.46;;;14.17;56.92
48156;BME280;35568;48.104;11.782;2023-05-10T03:13:06;94793.45;;;13.61;57.24
48156;BME280;35568;48.104;11.782;2023-05-10T03:15:41;94793.29;;;13.62;57.43
48156;BME280;35568;48.104;11.782;2023-05-10T03:18:12;94796.66;;;13.78;57.50
48156;BME280;35568;48.104;11.782;2023-05-10T03:20:46;94801.16;;;13.48;58.02
48156;BME280;35568;48.104;11.782;2023-05-10T03:23:29;94803.48;;;13.62;58.05
48156;BME280;35568;48.104;11.782;2023-05-10T03:25:57;94804.98;;;13.71;57.77
48156;BME280;35568;48.104;11.782;2023-05-10T03:28:27;94806.27;;;13.74;57.57
48156;BME280;35568;48.104;11.782;2023-05-10T03:30:54;94809.06;;;13.42;57.69
48156;BME280;35568;48.104;11.782;2023-05-10T03:33:21;94811.39;;;13.85;57.38
48156;BME280;35568;48.104;11.782;2023-05-10T03:35:48;94813.72;;;13.70;57.76
48156;BME280;35568;48.104;11.782;2023-05-10T03:38:15;94813.43;;;13.63;57.68
48156;BME280;35568;48.104;11.782;2023-05-10T03:40:42;94813.37;;;13.87;57.55
48156;BME280;35568;48.104;11.782;2023-05-10T03:43:08;94816.30;;;13.83;57.50
48156;BME280;35568;48.104;11.782;2023-05-10T03:45:35;94814.87;;;13.60;57.76
48156;BME280;35568;48.104;11.782;2023-05-10T03:48:03;94819.21;;;13.49;57.80
48156;BME280;35568;48.104;11.782;2023-05-10T03:50:30;94820.51;;;13.69;57.96
48156;BME280;35568;48.104;11.782;2023-05-10T03:52:56;94823.21;;;13.30;58.38
48156;BME280;35568;48.104;11.782;2023-05-10T03:55:23;94822.17;;;13.32;58.09
48156;BME280;35568;48.104;11.782;2023-05-10T03:57:50;94827.37;;;13.31;58.47
48156;BME280;35568;48.104;11.782;2023-05-10T04:00:18;94832.40;;;13.72;58.47
48156;BME280;35568;48.104;11.782;2023-05-10T04:02:45;94827.23;;;13.26;58.70
48156;BME280;35568;48.104;11.782;2023-05-10T04:05:12;94832.94;;;13.04;58.77
48156;BME280;35568;48.104;11.782;2023-05-10T04:07:38;94831.34;;;13.02;58.71
48156;BME280;35568;48.104;11.782;2023-05-10T04:10:06;94833.84;;;13.32;58.49
48156;BME280;35568;48.104;11.782;2023-05-10T04:12:33;94832.46;;;13.12;58.65
48156;BME280;35568;48.104;11.782;2023-05-10T04:15:00;94834.57;;;13.52;58.16
48156;BME280;35568;48.104;11.782;2023-05-10T04:17:26;94834.29;;;13.28;58.42
48156;BME280;35568;48.104;11.782;2023-05-10T04:19:54;94837.52;;;13.45;58.69
48156;BME280;35568;48.104;11.782;2023-05-10T04:22:21;94838.93;;;13.65;58.40
48156;BME280;35568;48.104;11.782;2023-05-10T04:24:48;94842.01;;;13.17;58.46
48156;BME280;35568;48.104;11.782;2023-05-10T04:27:14;94841.01;;;13.32;58.56
48156;BME280;35568;48.104;11.782;2023-05-10T04:29:41;94841.94;;;13.36;58.31
48156;BME280;35568;48.104;11.782;2023-05-10T04:32:08;94844.22;;;13.46;58.23
48156;BME280;35568;48.104;11.782;2023-05-10T04:34:35;94842.73;;;13.54;58.05
48156;BME280;35568;48.104;11.782;2023-05-10T04:37:02;94841.75;;;13.87;57.65
48156;BME280;35568;48.104;11.782;2023-05-10T04:39:28;94842.46;;;13.28;58.19
48156;BME280;35568;48.104;11.782;2023-05-10T04:41:55;94844.46;;;13.08;58.71
48156;BME280;35568;48.104;11.782;2023-05-10T04:44:22;94846.73;;;13.25;58.46
48156;BME280;35568;48.104;11.782;2023-05-10T04:46:49;94848.09;;;13.24;58.42
48156;BME280;35568;48.104;11.782;2023-05-10T04:49:15;94846.97;;;13.61;58.21
48156;BME280;35568;48.104;11.782;2023-05-10T04:51:42;94849.67;;;13.08;58.75
48156;BME280;35568;48.104;11.782;2023-05-10T04:54:09;94849.03;;;13.41;58.63
48156;BME280;35568;48.104;11.782;2023-05-10T04:56:36;94848.67;;;13.71;58.43
48156;BME280;35568;48.104;11.782;2023-05-10T04:59:03;94851.07;;;13.18;58.62
48156;BME280;35568;48.104;11.782;2023-05-10T05:01:30;94853.00;;;13.30;58.77
48156;BME280;35568;48.104;11.782;2023-05-10T05:03:57;94850.22;;;13.66;58.53
48156;BME280;35568;48.104;11.782;2023-05-10T05:06:24;94852.94;;;12.57;58.02
48156;BME280;35568;48.104;11.782;2023-05-10T05:08:51;94853.59;;;14.23;56.86
48156;BME280;35568;48.104;11.782;2023-05-10T05:11:18;94854.81;;;13.67;57.00
48156;BME280;35568;48.104;11.782;2023-05-10T05:13:45;94859.83;;;13.85;57.18
48156;BME280;35568;48.104;11.782;2023-05-10T05:16:12;94855.74;;;13.59;57.65
48156;BME280;35568;48.104;11.782;2023-05-10T05:18:39;94861.18;;;13.37;57.75
48156;BME280;35568;48.104;11.782;2023-05-10T05:21:14;94862.82;;;13.33;57.48
48156;BME280;35568;48.104;11.782;2023-05-10T05:23:41;94865.87;;;13.37;58.06
48156;BME280;35568;48.104;11.782;2023-05-10T05:26:07;94869.25;;;13.18;58.26
48156;BME280;35568;48.104;11.782;2023-05-10T05:28:34;94870.57;;;13.48;58.27
48156;BME280;35568;48.104;11.782;2023-05-10T05:31:01;94876.73;;;12.99;58.61
48156;BME280;35568;48.104;11.782;2023-05-10T05:33:28;94878.26;;;12.94;58.55
48156;BME280;35568;48.104;11.782;2023-05-10T05:35:55;94881.88;;;12.99;58.64
48156;BME280;35568;48.104;11.782;2023-05-10T05:38:21;94886.00;;;12.88;59.07
48156;BME280;35568;48.104;11.782;2023-05-10T05:40:48;94888.74;;;13.08;58.84
48156;BME280;35568;48.104;11.782;2023-05-10T05:43:15;94889.99;;;13.13;58.81
48156;BME280;35568;48.104;11.782;2023-05-10T05:45:42;94898.21;;;13.13;58.31
48156;BME280;35568;48.104;11.782;2023-05-10T05:48:08;94906.40;;;13.21;57.97
48156;BME280;35568;48.104;11.782;2023-05-10T05:50:35;94905.00;;;13.59;57.90
48156;BME280;35568;48.104;11.782;2023-05-10T05:53:02;94906.87;;;13.17;57.96
48156;BME280;35568;48.104;11.782;2023-05-10T05:55:29;94917.53;;;13.10;57.82
48156;BME280;35568;48.104;11.782;2023-05-10T05:57:56;94918.19;;;12.51;58.81
48156;BME280;35568;48.104;11.782;2023-05-10T06:00:23;94922.81;;;12.47;58.12
48156;BME280;35568;48.104;11.782;2023-05-10T06:02:49;94930.04;;;12.18;58.74
48156;BME280;35568;48.104;11.782;2023-05-10T06:05:16;94932.30;;;12.80;58.55
48156;BME280;35568;48.104;11.782;2023-05-10T06:07:44;94931.73;;;12.33;58.59
48156;BME280;35568;48.104;11.782;2023-05-10T06:10:11;94932.68;;;12.67;58.17
48156;BME280;35568;48.104;11.782;2023-05-10T06:12:37;94938.05;;;12.67;58.27
48156;BME280;35568;48.104;11.782;2023-05-10T06:15:05;94941.62;;;12.74;57.75
48156;BME280;35568;48.104;11.782;2023-05-10T06:17:32;94939.14;;;12.95;57.77
48156;BME280;35568;48.104;11.782;2023-05-10T06:19:58;94938.24;;;13.07;56.97
48156;BME280;35568;48.104;11.782;2023-05-10T06:22:25;94944.00;;;13.15;57.28
48156;BME280;35568;48.104;11.782;2023-05-10T06:24:52;94949.65;;;13.14;57.08
48156;BME280;35568;48.104;11.782;2023-05-10T06:27:19;94951.77;;;13.29;56.54
48156;BME280;35568;48.104;11.782;2023-05-10T06:29:46;94956.54;;;13.32;56.55
48156;BME280;35568;48.104;11.782;2023-05-10T06:32:12;94962.21;;;13.70;56.54
48156;BME280;35568;48.104;11.782;2023-05-10T06:34:39;94963.79;;;13.55;56.19
48156;BME280;35568;48.104;11.782;2023-05-10T06:37:06;94969.37;;;14.01;55.95
48156;BME280;35568;48.104;11.782;2023-05-10T06:39:33;94968.69;;;14.29;55.56
48156;BME280;35568;48.104;11.782;2023-05-10T06:42:00;94971.62;;;13.92;56.00
48156;BME280;35568;48.104;11.782;2023-05-10T06:44:26;94974.21;;;13.71;56.12
48156;BME280;35568;48.104;11.782;2023-05-10T06:46:54;94974.83;;;13.18;56.23
48156;BME280;35568;48.104;11.782;2023-05-10T06:49:21;94973.68;;;14.22;55.33
48156;BME280;35568;48.104;11.782;2023-05-10T06:51:47;94973.28;;;14.24;55.53
48156;BME280;35568;48.104;11.782;2023-05-10T06:54:14;94967.77;;;14.28;54.78
48156;BME280;35568;48.104;11.782;2023-05-10T06:56:41;94970.05;;;14.36;55.05
48156;BME280;35568;48.104;11.782;2023-05-10T06:59:08;94971.89;;;14.45;55.37
48156;BME280;35568;48.104;11.782;2023-05-10T07:01:35;94968.32;;;14.89;54.26
48156;BME280;35568;48.104;11.782;2023-05-10T07:04:01;94969.56;;;14.29;54.61
48156;BME280;35568;48.104;11.782;2023-05-10T07:06:28;94971.60;;;14.55;54.99
48156;BME280;35568;48.104;11.782;2023-05-10T07:08:55;94973.50;;;14.89;54.22
48156;BME280;35568;48.104;11.782;2023-05-10T07:11:22;94971.80;;;14.61;54.30
48156;BME280;35568;48.104;11.782;2023-05-10T07:13:48;94970.76;;;14.77;54.28
48156;BME280;35568;48.104;11.782;2023-05-10T07:16:15;94976.15;;;14.60;54.03
48156;BME280;35568;48.104;11.782;2023-05-10T07:18:42;94971.15;;;14.85;54.21
48156;BME280;35568;48.104;11.782;2023-05-10T07:21:09;94976.14;;;15.09;53.12
48156;BME280;35568;48.104;11.782;2023-05-10T07:23:36;94979.62;;;15.31;53.76
48156;BME280;35568;48.104;11.782;2023-05-10T07:26:03;94978.38;;;15.06;53.62
48156;BME280;35568;48.104;11.782;2023-05-10T07:28:30;94980.71;;;15.12;52.33
48156;BME280;35568;48.104;11.782;2023-05-10T07:30:57;94980.80;;;14.78;52.78
48156;BME280;35568;48.104;11.782;2023-05-10T07:33:24;94982.30;;;15.06;52.66
48156;BME280;35568;48.104;11.782;2023-05-10T07:35:50;94979.68;;;15.16;53.23
48156;BME280;35568;48.104;11.782;2023-05-10T07:38:17;94981.67;;;15.30;53.55
48156;BME280;35568;48.104;11.782;2023-05-10T07:40:44;94976.71;;;15.58;52.60
48156;BME280;35568;48.104;11.782;2023-05-10T07:43:11;94976.81;;;15.92;52.41
48156;BME280;35568;48.104;11.782;2023-05-10T07:45:37;94979.09;;;15.44;53.16
48156;BME280;35568;48.104;11.782;2023-05-10T07:48:04;94984.51;;;15.31;52.27
48156;BME280;35568;48.104;11.782;2023-05-10T07:50:31;94988.64;;;15.30;51.58
48156;BME280;35568;48.104;11.782;2023-05-10T07:52:58;94992.36;;;15.47;51.85
48156;BME280;35568;48.104;11.782;2023-05-10T07:55:24;94992.29;;;15.88;52.03
48156;BME280;35568;48.104;11.782;2023-05-10T07:57:51;94987.91;;;15.88;52.36
48156;BME280;35568;48.104;11.782;2023-05-10T08:00:19;94988.43;;;16.24;51.46
48156;BME280;35568;48.104;11.782;2023-05-10T08:02:47;94987.44;;;16.23;50.28
48156;BME280;35568;48.104;11.782;2023-05-10T08:05:14;94985.37;;;16.45;50.05
48156;BME280;35568;48.104;11.782;2023-05-10T08:07:41;94984.97;;;16.14;49.63
48156;BME280;35568;48.104;11.782;2023-05-10T08:10:08;94981.61;;;15.96;49.67
48156;BME280;35568;48.104;11.782;2023-05-10T08:12:35;94982.70;;;15.56;49.63
48156;BME280;35568;48.104;11.782;2023-05-10T08:15:03;94984.02;;;15.24;50.06
48156;BME280;35568;48.104;11.782;2023-05-10T08:17:30;94988.39;;;15.13;50.77
48156;BME280;35568;48.104;11.782;2023-05-10T08:19:56;94994.28;;;15.08;51.70
48156;BME280;35568;48.104;11.782;2023-05-10T08:22:23;94991.19;;;15.10;51.77
48156;BME280;35568;48.104;11.782;2023-05-10T08:24:50;94992.38;;;15.39;51.88
48156;BME280;35568;48.104;11.782;2023-05-10T08:27:17;94997.92;;;14.97;51.48
48156;BME280;35568;48.104;11.782;2023-05-10T08:29:43;94996.87;;;15.49;51.02
48156;BME280;35568;48.104;11.782;2023-05-10T08:32:10;94992.49;;;15.96;49.33
48156;BME280;35568;48.104;11.782;2023-05-10T08:34:37;94995.30;;;16.35;49.46
48156;BME280;35568;48.104;11.782;2023-05-10T08:37:04;94991.83;;;17.14;48.59
48156;BME280;35568;48.104;11.782;2023-05-10T08:39:34;94988.71;;;17.53;47.30
48156;BME280;35568;48.104;11.782;2023-05-10T08:42:03;94987.22;;;17.94;46.27
48156;BME280;35568;48.104;11.782;2023-05-10T08:44:32;94989.75;;;18.22;44.93
48156;BME280;35568;48.104;11.782;2023-05-10T08:47:04;94994.65;;;18.79;42.38
48156;BME280;35568;48.104;11.782;2023-05-10T08:49:32;94993.33;;;18.96;41.51
48156;BME280;35568;48.104;11.782;2023-05-10T08:52:02;94994.13;;;18.73;42.03
48156;BME280;35568;48.104;11.782;2023-05-10T08:54:30;94990.94;;;18.92;41.07
48156;BME280;35568;48.104;11.782;2023-05-10T08:56:58;94992.28;;;19.10;42.22
48156;BME280;35568;48.104;11.782;2023-05-10T08:59:25;94996.08;;;18.60;42.65
48156;BME280;35568;48.104;11.782;2023-05-10T09:01:53;94997.07;;;18.39;41.74
48156;BME280;35568;48.104;11.782;2023-05-10T09:04:22;94995.56;;;18.24;40.14
48156;BME280;35568;48.104;11.782;2023-05-10T09:06:49;94997.58;;;17.95;42.92
48156;BME280;35568;48.104;11.782;2023-05-10T09:09:17;94997.02;;;17.65;42.08
48156;BME280;35568;48.104;11.782;2023-05-10T09:11:44;95001.26;;;17.21;43.48
48156;BME280;35568;48.104;11.782;2023-05-10T09:14:12;94995.82;;;17.23;42.51
48156;BME280;35568;48.104;11.782;2023-05-10T09:16:40;94998.04;;;17.13;43.56
48156;BME280;35568;48.104;11.782;2023-05-10T09:19:08;95002.21;;;17.41;43.61
48156;BME280;35568;48.104;11.782;2023-05-10T09:21:36;95006.64;;;17.99;42.97
48156;BME280;35568;48.104;11.782;2023-05-10T09:24:04;95006.86;;;18.17;42.01
48156;BME280;35568;48.104;11.782;2023-05-10T09:26:31;95005.10;;;18.95;41.67
48156;BME280;35568;48.104;11.782;2023-05-10T09:28:59;95004.42;;;18.80;40.73
48156;BME280;35568;48.104;11.782;2023-05-10T09:31:44;95005.95;;;18.18;41.29
48156;BME280;35568;48.104;11.782;2023-05-10T09:34:11;95004.79;;;18.10;42.07
48156;BME280;35568;48.104;11.782;2023-05-10T09:36:50;95007.51;;;18.19;42.38
48156;BME280;35568;48.104;11.782;2023-05-10T09:39:17;95009.51;;;17.54;42.88
48156;BME280;35568;48.104;11.782;2023-05-10T09:41:44;95008.54;;;17.69;41.24
48156;BME280;35568;48.104;11.782;2023-05-10T09:44:11;95009.78;;;17.78;42.57
48156;BME280;35568;48.104;11.782;2023-05-10T09:46:37;95008.56;;;17.97;42.54
48156;BME280;35568;48.104;11.782;2023-05-10T09:49:05;95007.98;;;18.04;42.27
48156;BME280;35568;48.104;11.782;2023-05-10T09:51:32;95002.19;;;18.71;41.98
48156;BME280;35568;48.104;11.782;2023-05-10T09:54:16;94997.71;;;19.63;40.83
48156;BME280;35568;48.104;11.782;2023-05-10T09:56:43;94991.99;;;20.33;39.19
48156;BME280;35568;48.104;11.782;2023-05-10T09:59:11;94988.13;;;19.72;39.07
48156;BME280;35568;48.104;11.782;2023-05-10T10:01:38;94999.81;;;18.89;40.17
48156;BME280;35568;48.104;11.782;2023-05-10T10:04:07;95000.03;;;18.19;40.38
48156;BME280;35568;48.104;11.782;2023-05-10T10:06:37;95001.62;;;17.70;41.33
48156;BME280;35568;48.104;11.782;2023-05-10T10:09:04;95000.10;;;17.46;42.54
48156;BME280;35568;48.104;11.782;2023-05-10T10:11:32;95002.61;;;17.70;42.64
48156;BME280;35568;48.104;11.782;2023-05-10T10:13:59;95004.83;;;17.35;42.30
48156;BME280;35568;48.104;11.782;2023-05-10T10:16:27;95002.50;;;17.33;43.45
48156;BME280;35568;48.104;11.782;2023-05-10T10:18:55;95004.67;;;17.16;43.84
48156;BME280;35568;48.104;11.782;2023-05-10T10:21:22;95003.25;;;17.45;43.73
48156;BME280;35568;48.104;11.782;2023-05-10T10:23:50;95000.53;;;17.47;43.14
48156;BME280;35568;48.104;11.782;2023-05-10T10:26:18;94999.39;;;17.12;43.32
48156;BME280;35568;48.104;11.782;2023-05-10T10:28:50;94998.10;;;17.45;43.09
48156;BME280;35568;48.104;11.782;2023-05-10T10:31:26;94998.29;;;18.26;42.67
48156;BME280;35568;48.104;11.782;2023-05-10T10:34:00;94996.84;;;18.59;41.30
48156;BME280;35568;48.104;11.782;2023-05-10T10:36:27;94995.03;;;18.31;39.99
48156;BME280;35568;48.104;11.782;2023-05-10T10:38:57;94994.54;;;18.74;40.71
48156;BME280;35568;48.104;11.782;2023-05-10T10:41:29;94990.91;;;18.27;40.34
48156;BME280;35568;48.104;11.782;2023-05-10T10:44:24;94988.41;;;19.12;40.29
48156;BME280;35568;48.104;11.782;2023-05-10T10:47:01;94983.54;;;19.25;39.94
48156;BME280;35568;48.104;11.782;2023-05-10T10:49:31;94982.94;;;19.50;39.15
48156;BME280;35568;48.104;11.782;2023-05-10T10:53:10;94984.13;;;19.76;38.76
48156;BME280;35568;48.104;11.782;2023-05-10T10:55:45;94980.02;;;19.78;39.10
48156;BME280;35568;48.104;11.782;2023-05-10T10:58:29;94981.83;;;20.31;39.39
48156;BME280;35568;48.104;11.782;2023-05-10T11:01:11;94979.94;;;20.07;37.35
48156;BME280;35568;48.104;11.782;2023-05-10T11:03:38;94978.25;;;19.69;37.89
48156;BME280;35568;48.104;11.782;2023-05-10T11:06:05;94982.42;;;19.38;37.89
48156;BME280;35568;48.104;11.782;2023-05-10T11:08:39;94987.05;;;19.12;38.00
48156;BME280;35568;48.104;11.782;2023-05-10T11:11:08;94987.04;;;18.78;38.11
48156;BME280;35568;48.104;11.782;2023-05-10T11:13:38;94984.21;;;18.82;37.75
48156;BME280;35568;48.104;11.782;2023-05-10T11:16:16;94981.84;;;19.34;38.41
48156;BME280;35568;48.104;11.782;2023-05-10T11:19:01;94976.91;;;19.90;37.61
48156;BME280;35568;48.104;11.782;2023-05-10T11:21:28;94978.03;;;19.46;37.80
48156;BME280;35568;48.104;11.782;2023-05-10T11:23:56;94977.16;;;19.65;38.67
48156;BME280;35568;48.104;11.782;2023-05-10T11:26:24;94978.99;;;19.15;39.00
48156;BME280;35568;48.104;11.782;2023-05-10T11:28:53;94986.39;;;18.63;39.63
48156;BME280;35568;48.104;11.782;2023-05-10T11:31:21;94985.56;;;18.26;41.64
48156;BME280;35568;48.104;11.782;2023-05-10T11:33:52;94986.30;;;17.99;42.50
48156;BME280;35568;48.104;11.782;2023-05-10T11:36:21;94989.86;;;17.97;43.59
48156;BME280;35568;48.104;11.782;2023-05-10T11:38:48;94991.03;;;18.29;44.05
48156;BME280;35568;48.104;11.782;2023-05-10T11:41:18;94992.23;;;18.45;45.42
48156;BME280;35568;48.104;11.782;2023-05-10T11:43:46;94990.35;;;18.16;44.58
48156;BME280;35568;48.104;11.782;2023-05-10T11:46:14;94993.13;;;17.80;45.38
48156;BME280;35568;48.104;11.782;2023-05-10T11:48:42;94993.56;;;17.79;45.48
48156;BME280;35568;48.104;11.782;2023-05-10T11:51:10;94995.89;;;17.40;45.78
48156;BME280;35568;48.104;11.782;2023-05-10T11:53:38;94995.14;;;17.21;46.15
48156;BME280;35568;48.104;11.782;2023-05-10T11:56:06;94998.70;;;16.99;47.96
48156;BME280;35568;48.104;11.782;2023-05-10T11:58:34;95002.57;;;16.70;48.31
48156;BME280;35568;48.104;11.782;2023-05-10T12:01:01;95010.33;;;16.34;48.49
48156;BME280;35568;48.104;11.782;2023-05-10T12:03:29;95015.29;;;16.20;49.65
48156;BME280;35568;48.104;11.782;2023-05-10T12:05:57;95022.21;;;15.52;50.84
48156;BME280;35568;48.104;11.782;2023-05-10T12:08:27;95027.49;;;15.43;52.13
48156;BME280;35568;48.104;11.782;2023-05-10T12:11:04;95035.52;;;14.99;51.45
48156;BME280;35568;48.104;11.782;2023-05-10T12:13:31;95051.67;;;15.18;50.71
48156;BME280;35568;48.104;11.782;2023-05-10T12:15:58;95052.28;;;14.56;50.86
48156;BME280;35568;48.104;11.782;2023-05-10T12:18:25;95050.92;;;14.22;52.55
48156;BME280;35568;48.104;11.782;2023-05-10T12:20:52;95045.37;;;13.84;53.19
48156;BME280;35568;48.104;11.782;2023-05-10T12:23:20;95052.66;;;13.82;53.86
48156;BME280;35568;48.104;11.782;2023-05-10T12:25:47;95066.66;;;13.55;53.09
48156;BME280;35568;48.104;11.782;2023-05-10T12:28:14;95065.30;;;14.20;53.04
48156;BME280;35568;48.104;11.782;2023-05-10T12:30:41;95064.03;;;14.11;53.52
48156;BME280;35568;48.104;11.782;2023-05-10T12:33:09;95069.79;;;14.03;53.87
48156;BME280;35568;48.104;11.782;2023-05-10T12:35:46;95071.31;;;14.22;53.58
48156;BME280;35568;48.104;11.782;2023-05-10T12:38:32;95075.95;;;14.32;53.13
48156;BME280;35568;48.104;11.782;2023-05-10T12:40:59;95077.26;;;14.58;52.66
48156;BME280;35568;48.104;11.782;2023-05-10T12:43:27;95078.77;;;13.97;52.41
48156;BME280;35568;48.104;11.782;2023-05-10T12:45:54;95080.79;;;13.32;54.07
48156;BME280;35568;48.104;11.782;2023-05-10T12:48:20;95084.66;;;13.52;54.48
48156;BME280;35568;48.104;11.782;2023-05-10T12:50:47;95088.22;;;13.38;54.96
48156;BME280;35568;48.104;11.782;2023-05-10T12:53:14;95086.33;;;13.27;55.25
48156;BME280;35568;48.104;11.782;2023-05-10T12:55:42;95088.59;;;13.50;55.23
48156;BME280;35568;48.104;11.782;2023-05-10T12:58:08;95089.27;;;13.43;55.26
48156;BME280;35568;48.104;11.782;2023-05-10T13:00:35;95087.32;;;13.37;55.31
48156;BME280;35568;48.104;11.782;2023-05-10T13:03:02;95085.94;;;13.00;55.38